sensor_id;sensor_type;location;lat;lon;timestamp;P1;durP1;ratioP1;P2;durP2;ratioP2
52534;SDS011;38443;53.164;5.802;2023-05-14T00:04:33;18.98;;;9.40;;
52534;SDS011;38443;53.164;5.802;2023-05-14T00:06:58;13.50;;;8.57;;
52534;SDS011;38443;53.164;5.802;2023-05-14T00:11:49;17.50;;;9.18;;
52534;SDS011;38443;53.164;5.802;2023-05-14T00:14:14;15.55;;;9.05;;
52534;SDS011;38443;53.164;5.802;2023-05-14T00:19:05;15.63;;;8.65;;
52534;SDS011;38443;53.164;5.802;2023-05-14T00:21:30;15.85;;;9.35;;
52534;SDS011;38443;53.164;5.802;2023-05-14T00:23:56;16.20;;;8.80;;
52534;SDS011;38443;53.164;5.802;2023-05-14T00:26:21;15.63;;;9.25;;
52534;SDS011;38443;53.164;5.802;2023-05-14T00:31:13;14.43;;;8.18;;
52534;SDS011;38443;53.164;5.802;2023-05-14T00:36:03;15.88;;;8.77;;
52534;SDS011;38443;53.164;5.802;2023-05-14T00:38:29;18.83;;;8.98;;
52534;SDS011;38443;53.164;5.802;2023-05-14T00:40:54;19.23;;;9.10;;
52534;SDS011;38443;53.164;5.802;2023-05-14T00:43:20;14.48;;;8.30;;
52534;SDS011;38443;53.164;5.802;2023-05-14T00:45:46;14.45;;;8.95;;
52534;SDS011;38443;53.164;5.802;2023-05-14T00:48:14;19.30;;;9.00;;
52534;SDS011;38443;53.164;5.802;2023-05-14T00:53:05;14.52;;;8.20;;
52534;SDS011;38443;53.164;5.802;2023-05-14T00:55:34;17.80;;;9.27;;
52534;SDS011;38443;53.164;5.802;2023-05-14T00:58:01;12.32;;;8.32;;
52534;SDS011;38443;53.164;5.802;2023-05-14T01:00:31;12.32;;;7.47;;
52534;SDS011;38443;53.164;5.802;2023-05-14T01:05:25;18.35;;;8.80;;
52534;SDS011;38443;53.164;5.802;2023-05-14T01:07:59;17.42;;;8.23;;
52534;SDS011;38443;53.164;5.802;2023-05-14T01:16:18;14.75;;;7.85;;
52534;SDS011;38443;53.164;5.802;2023-05-14T01:18:45;16.30;;;8.00;;
52534;SDS011;38443;53.164;5.802;2023-05-14T01:24:04;20.60;;;10.52;;
52534;SDS011;38443;53.164;5.802;2023-05-14T01:28:58;16.88;;;9.48;;
52534;SDS011;38443;53.164;5.802;2023-05-14T01:31:48;18.88;;;10.13;;
52534;SDS011;38443;53.164;5.802;2023-05-14T01:34:15;16.17;;;8.30;;
52534;SDS011;38443;53.164;5.802;2023-05-14T01:36:45;19.73;;;8.98;;
52534;SDS011;38443;53.164;5.802;2023-05-14T01:39:11;20.38;;;9.02;;
52534;SDS011;38443;53.164;5.802;2023-05-14T01:41:39;26.20;;;9.20;;
52534;SDS011;38443;53.164;5.802;2023-05-14T01:44:07;23.13;;;9.13;;
52534;SDS011;38443;53.164;5.802;2023-05-14T01:46:33;16.63;;;9.45;;
52534;SDS011;38443;53.164;5.802;2023-05-14T01:51:23;21.58;;;10.27;;
52534;SDS011;38443;53.164;5.802;2023-05-14T01:53:49;16.40;;;9.85;;
52534;SDS011;38443;53.164;5.802;2023-05-14T01:56:15;17.05;;;9.05;;
52534;SDS011;38443;53.164;5.802;2023-05-14T01:58:41;31.63;;;10.48;;
52534;SDS011;38443;53.164;5.802;2023-05-14T02:03:32;16.33;;;9.80;;
52534;SDS011;38443;53.164;5.802;2023-05-14T02:05:57;18.38;;;9.60;;
52534;SDS011;38443;53.164;5.802;2023-05-14T02:08:22;19.00;;;9.65;;
52534;SDS011;38443;53.164;5.802;2023-05-14T02:10:48;19.92;;;10.00;;
52534;SDS011;38443;53.164;5.802;2023-05-14T02:15:38;19.43;;;9.57;;
52534;SDS011;38443;53.164;5.802;2023-05-14T02:20:29;20.45;;;9.63;;
52534;SDS011;38443;53.164;5.802;2023-05-14T02:22:54;23.83;;;10.43;;
52534;SDS011;38443;53.164;5.802;2023-05-14T02:27:45;24.57;;;11.53;;
52534;SDS011;38443;53.164;5.802;2023-05-14T02:32:35;25.23;;;11.82;;
52534;SDS011;38443;53.164;5.802;2023-05-14T02:37:26;24.95;;;11.43;;
52534;SDS011;38443;53.164;5.802;2023-05-14T02:39:51;23.20;;;11.52;;
52534;SDS011;38443;53.164;5.802;2023-05-14T02:44:42;23.17;;;12.07;;
52534;SDS011;38443;53.164;5.802;2023-05-14T02:49:33;19.37;;;10.33;;
52534;SDS011;38443;53.164;5.802;2023-05-14T02:54:24;24.88;;;13.27;;
52534;SDS011;38443;53.164;5.802;2023-05-14T02:59:15;23.95;;;12.38;;
52534;SDS011;38443;53.164;5.802;2023-05-14T03:01:40;23.42;;;11.27;;
52534;SDS011;38443;53.164;5.802;2023-05-14T03:04:06;25.70;;;12.43;;
52534;SDS011;38443;53.164;5.802;2023-05-14T03:06:31;23.40;;;12.48;;
52534;SDS011;38443;53.164;5.802;2023-05-14T03:11:22;27.27;;;10.50;;
52534;SDS011;38443;53.164;5.802;2023-05-14T03:16:12;19.55;;;10.75;;
52534;SDS011;38443;53.164;5.802;2023-05-14T03:18:38;23.50;;;10.35;;
52534;SDS011;38443;53.164;5.802;2023-05-14T03:23:28;19.65;;;10.20;;
52534;SDS011;38443;53.164;5.802;2023-05-14T03:25:56;19.02;;;10.15;;
52534;SDS011;38443;53.164;5.802;2023-05-14T03:30:46;19.75;;;9.95;;
52534;SDS011;38443;53.164;5.802;2023-05-14T03:33:12;22.15;;;10.85;;
52534;SDS011;38443;53.164;5.802;2023-05-14T03:35:37;22.92;;;9.60;;
52534;SDS011;38443;53.164;5.802;2023-05-14T03:40:28;19.95;;;9.98;;
52534;SDS011;38443;53.164;5.802;2023-05-14T03:42:53;19.83;;;10.07;;
52534;SDS011;38443;53.164;5.802;2023-05-14T03:45:20;18.02;;;10.90;;
52534;SDS011;38443;53.164;5.802;2023-05-14T03:50:10;21.67;;;9.18;;
52534;SDS011;38443;53.164;5.802;2023-05-14T03:52:35;19.80;;;10.25;;
52534;SDS011;38443;53.164;5.802;2023-05-14T03:57:26;19.15;;;10.02;;
52534;SDS011;38443;53.164;5.802;2023-05-14T03:59:52;20.25;;;10.10;;
52534;SDS011;38443;53.164;5.802;2023-05-14T04:04:43;22.20;;;10.05;;
52534;SDS011;38443;53.164;5.802;2023-05-14T04:07:08;20.50;;;10.00;;
52534;SDS011;38443;53.164;5.802;2023-05-14T04:09:34;23.50;;;10.52;;
52534;SDS011;38443;53.164;5.802;2023-05-14T04:11:59;20.38;;;10.02;;
52534;SDS011;38443;53.164;5.802;2023-05-14T04:14:24;17.27;;;10.27;;
52534;SDS011;38443;53.164;5.802;2023-05-14T04:19:16;21.90;;;10.13;;
52534;SDS011;38443;53.164;5.802;2023-05-14T04:24:07;24.38;;;11.38;;
52534;SDS011;38443;53.164;5.802;2023-05-14T04:26:32;24.10;;;10.60;;
52534;SDS011;38443;53.164;5.802;2023-05-14T04:28:57;19.73;;;9.40;;
52534;SDS011;38443;53.164;5.802;2023-05-14T04:31:26;23.80;;;10.25;;
52534;SDS011;38443;53.164;5.802;2023-05-14T04:36:17;27.60;;;10.30;;
52534;SDS011;38443;53.164;5.802;2023-05-14T04:41:08;17.10;;;9.60;;
52534;SDS011;38443;53.164;5.802;2023-05-14T04:45:58;22.75;;;10.82;;
52534;SDS011;38443;53.164;5.802;2023-05-14T04:48:23;20.75;;;9.43;;
52534;SDS011;38443;53.164;5.802;2023-05-14T04:50:49;21.98;;;9.80;;
52534;SDS011;38443;53.164;5.802;2023-05-14T04:53:14;19.35;;;9.85;;
52534;SDS011;38443;53.164;5.802;2023-05-14T04:58:05;18.90;;;10.07;;
52534;SDS011;38443;53.164;5.802;2023-05-14T05:02:57;20.48;;;10.15;;
52534;SDS011;38443;53.164;5.802;2023-05-14T05:05:22;21.30;;;9.52;;
52534;SDS011;38443;53.164;5.802;2023-05-14T05:07:48;26.00;;;11.45;;
52534;SDS011;38443;53.164;5.802;2023-05-14T05:12:40;18.73;;;9.20;;
52534;SDS011;38443;53.164;5.802;2023-05-14T05:15:05;23.40;;;10.38;;
52534;SDS011;38443;53.164;5.802;2023-05-14T05:17:31;20.38;;;9.65;;
52534;SDS011;38443;53.164;5.802;2023-05-14T05:22:22;24.58;;;9.77;;
52534;SDS011;38443;53.164;5.802;2023-05-14T05:24:47;16.02;;;9.93;;
52534;SDS011;38443;53.164;5.802;2023-05-14T05:29:38;20.55;;;10.05;;
52534;SDS011;38443;53.164;5.802;2023-05-14T05:34:29;20.27;;;9.75;;
52534;SDS011;38443;53.164;5.802;2023-05-14T05:36:55;17.55;;;9.50;;
52534;SDS011;38443;53.164;5.802;2023-05-14T05:39:20;19.48;;;9.68;;
52534;SDS011;38443;53.164;5.802;2023-05-14T05:41:45;16.77;;;8.38;;
52534;SDS011;38443;53.164;5.802;2023-05-14T05:44:11;17.98;;;9.30;;
52534;SDS011;38443;53.164;5.802;2023-05-14T05:46:36;17.60;;;8.90;;
52534;SDS011;38443;53.164;5.802;2023-05-14T05:49:01;16.70;;;8.63;;
52534;SDS011;38443;53.164;5.802;2023-05-14T05:51:27;15.90;;;9.60;;
52534;SDS011;38443;53.164;5.802;2023-05-14T05:53:52;20.00;;;9.23;;
52534;SDS011;38443;53.164;5.802;2023-05-14T05:56:17;19.60;;;9.07;;
52534;SDS011;38443;53.164;5.802;2023-05-14T05:58:43;19.70;;;9.40;;
52534;SDS011;38443;53.164;5.802;2023-05-14T06:01:08;19.65;;;9.40;;
52534;SDS011;38443;53.164;5.802;2023-05-14T06:03:33;19.50;;;8.63;;
52534;SDS011;38443;53.164;5.802;2023-05-14T06:05:59;14.35;;;8.43;;
52534;SDS011;38443;53.164;5.802;2023-05-14T06:08:24;18.55;;;9.05;;
52534;SDS011;38443;53.164;5.802;2023-05-14T06:10:50;15.02;;;9.05;;
52534;SDS011;38443;53.164;5.802;2023-05-14T06:13:15;11.57;;;8.20;;
52534;SDS011;38443;53.164;5.802;2023-05-14T06:15:41;18.38;;;9.05;;
52534;SDS011;38443;53.164;5.802;2023-05-14T06:18:06;19.13;;;9.07;;
52534;SDS011;38443;53.164;5.802;2023-05-14T06:20:31;13.68;;;8.10;;
52534;SDS011;38443;53.164;5.802;2023-05-14T06:22:57;16.55;;;8.07;;
52534;SDS011;38443;53.164;5.802;2023-05-14T06:25:22;22.38;;;8.82;;
52534;SDS011;38443;53.164;5.802;2023-05-14T06:27:48;15.23;;;7.68;;
52534;SDS011;38443;53.164;5.802;2023-05-14T06:30:13;15.90;;;7.70;;
52534;SDS011;38443;53.164;5.802;2023-05-14T06:32:39;20.98;;;7.20;;
52534;SDS011;38443;53.164;5.802;2023-05-14T06:35:04;13.98;;;7.00;;
52534;SDS011;38443;53.164;5.802;2023-05-14T06:37:30;14.23;;;7.75;;
52534;SDS011;38443;53.164;5.802;2023-05-14T06:39:55;15.75;;;7.65;;
52534;SDS011;38443;53.164;5.802;2023-05-14T06:42:21;15.82;;;7.78;;
52534;SDS011;38443;53.164;5.802;2023-05-14T06:44:46;12.10;;;6.90;;
52534;SDS011;38443;53.164;5.802;2023-05-14T06:47:11;11.25;;;6.28;;
52534;SDS011;38443;53.164;5.802;2023-05-14T06:49:37;12.77;;;6.38;;
52534;SDS011;38443;53.164;5.802;2023-05-14T06:52:03;13.18;;;6.72;;
52534;SDS011;38443;53.164;5.802;2023-05-14T06:54:28;11.85;;;6.13;;
52534;SDS011;38443;53.164;5.802;2023-05-14T06:56:55;12.02;;;6.32;;
52534;SDS011;38443;53.164;5.802;2023-05-14T06:59:20;13.68;;;5.93;;
52534;SDS011;38443;53.164;5.802;2023-05-14T07:01:46;12.70;;;6.63;;
52534;SDS011;38443;53.164;5.802;2023-05-14T07:04:11;17.00;;;6.88;;
52534;SDS011;38443;53.164;5.802;2023-05-14T07:06:36;9.70;;;6.30;;
52534;SDS011;38443;53.164;5.802;2023-05-14T07:09:02;10.98;;;6.15;;
52534;SDS011;38443;53.164;5.802;2023-05-14T07:11:27;10.52;;;6.30;;
52534;SDS011;38443;53.164;5.802;2023-05-14T07:13:52;12.88;;;6.03;;
52534;SDS011;38443;53.164;5.802;2023-05-14T07:16:18;13.43;;;6.63;;
52534;SDS011;38443;53.164;5.802;2023-05-14T07:18:43;9.82;;;6.18;;
52534;SDS011;38443;53.164;5.802;2023-05-14T07:21:09;13.55;;;6.10;;
52534;SDS011;38443;53.164;5.802;2023-05-14T07:23:35;12.30;;;6.13;;
52534;SDS011;38443;53.164;5.802;2023-05-14T07:26:02;12.98;;;5.97;;
52534;SDS011;38443;53.164;5.802;2023-05-14T07:28:30;15.20;;;6.55;;
52534;SDS011;38443;53.164;5.802;2023-05-14T07:30:56;15.55;;;6.75;;
52534;SDS011;38443;53.164;5.802;2023-05-14T07:33:21;14.90;;;7.65;;
52534;SDS011;38443;53.164;5.802;2023-05-14T07:35:47;12.25;;;6.28;;
52534;SDS011;38443;53.164;5.802;2023-05-14T07:38:12;14.98;;;7.05;;
52534;SDS011;38443;53.164;5.802;2023-05-14T07:40:38;14.23;;;6.43;;
52534;SDS011;38443;53.164;5.802;2023-05-14T07:43:03;13.80;;;6.90;;
52534;SDS011;38443;53.164;5.802;2023-05-14T07:45:29;10.55;;;5.70;;
52534;SDS011;38443;53.164;5.802;2023-05-14T07:47:54;15.25;;;6.38;;
52534;SDS011;38443;53.164;5.802;2023-05-14T07:50:19;14.65;;;6.57;;
52534;SDS011;38443;53.164;5.802;2023-05-14T07:52:45;12.80;;;6.40;;
52534;SDS011;38443;53.164;5.802;2023-05-14T07:55:11;11.70;;;7.22;;
52534;SDS011;38443;53.164;5.802;2023-05-14T07:57:36;13.95;;;6.45;;
52534;SDS011;38443;53.164;5.802;2023-05-14T08:00:02;15.85;;;6.03;;
52534;SDS011;38443;53.164;5.802;2023-05-14T08:02:28;11.82;;;6.13;;
52534;SDS011;38443;53.164;5.802;2023-05-14T08:04:54;10.95;;;6.68;;
52534;SDS011;38443;53.164;5.802;2023-05-14T08:07:19;17.42;;;7.07;;
52534;SDS011;38443;53.164;5.802;2023-05-14T08:09:45;16.77;;;7.60;;
52534;SDS011;38443;53.164;5.802;2023-05-14T08:12:11;12.15;;;5.97;;
52534;SDS011;38443;53.164;5.802;2023-05-14T08:14:36;13.80;;;6.53;;
52534;SDS011;38443;53.164;5.802;2023-05-14T08:17:02;11.05;;;6.78;;
52534;SDS011;38443;53.164;5.802;2023-05-14T08:19:27;17.13;;;6.70;;
52534;SDS011;38443;53.164;5.802;2023-05-14T08:21:52;13.05;;;6.28;;
52534;SDS011;38443;53.164;5.802;2023-05-14T08:24:18;13.38;;;6.00;;
52534;SDS011;38443;53.164;5.802;2023-05-14T08:26:43;13.07;;;6.93;;
52534;SDS011;38443;53.164;5.802;2023-05-14T08:29:08;12.07;;;6.22;;
52534;SDS011;38443;53.164;5.802;2023-05-14T08:31:34;14.00;;;5.68;;
52534;SDS011;38443;53.164;5.802;2023-05-14T08:34:00;10.05;;;6.70;;
52534;SDS011;38443;53.164;5.802;2023-05-14T08:36:25;11.05;;;6.35;;
52534;SDS011;38443;53.164;5.802;2023-05-14T08:38:51;9.82;;;6.05;;
52534;SDS011;38443;53.164;5.802;2023-05-14T08:41:16;11.43;;;6.68;;
52534;SDS011;38443;53.164;5.802;2023-05-14T08:43:56;13.23;;;6.07;;
52534;SDS011;38443;53.164;5.802;2023-05-14T08:46:37;10.20;;;6.18;;
52534;SDS011;38443;53.164;5.802;2023-05-14T08:49:13;13.70;;;6.28;;
52534;SDS011;38443;53.164;5.802;2023-05-14T08:51:40;15.02;;;6.35;;
52534;SDS011;38443;53.164;5.802;2023-05-14T08:54:06;13.77;;;6.78;;
52534;SDS011;38443;53.164;5.802;2023-05-14T08:56:32;9.65;;;6.45;;
52534;SDS011;38443;53.164;5.802;2023-05-14T08:58:57;11.32;;;6.45;;
52534;SDS011;38443;53.164;5.802;2023-05-14T09:01:23;10.65;;;7.00;;
52534;SDS011;38443;53.164;5.802;2023-05-14T09:03:49;14.45;;;6.57;;
52534;SDS011;38443;53.164;5.802;2023-05-14T09:06:16;15.38;;;6.13;;
52534;SDS011;38443;53.164;5.802;2023-05-14T09:08:43;12.30;;;5.57;;
52534;SDS011;38443;53.164;5.802;2023-05-14T09:11:08;9.90;;;5.50;;
52534;SDS011;38443;53.164;5.802;2023-05-14T09:13:36;11.23;;;5.93;;
52534;SDS011;38443;53.164;5.802;2023-05-14T09:16:02;9.73;;;5.53;;
52534;SDS011;38443;53.164;5.802;2023-05-14T09:18:28;10.45;;;5.90;;
52534;SDS011;38443;53.164;5.802;2023-05-14T09:20:53;9.63;;;6.47;;
52534;SDS011;38443;53.164;5.802;2023-05-14T09:23:18;11.20;;;5.90;;
52534;SDS011;38443;53.164;5.802;2023-05-14T09:25:44;11.50;;;5.88;;
52534;SDS011;38443;53.164;5.802;2023-05-14T09:28:11;10.27;;;5.50;;
52534;SDS011;38443;53.164;5.802;2023-05-14T09:30:41;9.60;;;6.13;;
52534;SDS011;38443;53.164;5.802;2023-05-14T09:33:06;11.15;;;6.10;;
52534;SDS011;38443;53.164;5.802;2023-05-14T09:35:34;11.80;;;5.90;;
52534;SDS011;38443;53.164;5.802;2023-05-14T09:38:04;13.05;;;5.53;;
52534;SDS011;38443;53.164;5.802;2023-05-14T09:40:29;11.77;;;5.70;;
52534;SDS011;38443;53.164;5.802;2023-05-14T09:42:54;11.48;;;6.68;;
52534;SDS011;38443;53.164;5.802;2023-05-14T09:45:20;10.20;;;5.45;;
52534;SDS011;38443;53.164;5.802;2023-05-14T09:47:45;13.40;;;5.53;;
52534;SDS011;38443;53.164;5.802;2023-05-14T09:50:11;11.25;;;5.05;;
52534;SDS011;38443;53.164;5.802;2023-05-14T09:52:36;10.25;;;5.18;;
52534;SDS011;38443;53.164;5.802;2023-05-14T09:55:02;10.73;;;5.43;;
52534;SDS011;38443;53.164;5.802;2023-05-14T09:57:28;14.70;;;5.75;;
52534;SDS011;38443;53.164;5.802;2023-05-14T09:59:53;7.70;;;5.15;;
52534;SDS011;38443;53.164;5.802;2023-05-14T10:02:23;11.07;;;5.60;;
52534;SDS011;38443;53.164;5.802;2023-05-14T10:04:53;14.30;;;6.55;;
52534;SDS011;38443;53.164;5.802;2023-05-14T10:07:22;10.50;;;5.28;;
52534;SDS011;38443;53.164;5.802;2023-05-14T10:09:53;12.13;;;5.30;;
52534;SDS011;38443;53.164;5.802;2023-05-14T10:12:23;11.05;;;5.30;;
52534;SDS011;38443;53.164;5.802;2023-05-14T10:14:56;10.85;;;5.80;;
52534;SDS011;38443;53.164;5.802;2023-05-14T10:17:28;8.98;;;5.13;;
52534;SDS011;38443;53.164;5.802;2023-05-14T10:19:55;9.77;;;5.57;;
52534;SDS011;38443;53.164;5.802;2023-05-14T10:22:23;8.27;;;5.60;;
52534;SDS011;38443;53.164;5.802;2023-05-14T10:24:50;8.98;;;5.18;;
52534;SDS011;38443;53.164;5.802;2023-05-14T10:27:17;19.42;;;6.22;;
52534;SDS011;38443;53.164;5.802;2023-05-14T10:29:52;11.88;;;5.57;;
52534;SDS011;38443;53.164;5.802;2023-05-14T10:32:19;9.35;;;5.50;;
52534;SDS011;38443;53.164;5.802;2023-05-14T10:34:46;11.75;;;6.25;;
52534;SDS011;38443;53.164;5.802;2023-05-14T10:37:22;9.40;;;5.47;;
52534;SDS011;38443;53.164;5.802;2023-05-14T10:39:53;11.40;;;6.18;;
52534;SDS011;38443;53.164;5.802;2023-05-14T10:44:59;11.20;;;6.20;;
52534;SDS011;38443;53.164;5.802;2023-05-14T10:47:33;12.18;;;6.15;;
52534;SDS011;38443;53.164;5.802;2023-05-14T10:50:01;9.50;;;5.75;;
52534;SDS011;38443;53.164;5.802;2023-05-14T10:52:28;10.93;;;6.60;;
52534;SDS011;38443;53.164;5.802;2023-05-14T10:54:55;13.20;;;6.35;;
52534;SDS011;38443;53.164;5.802;2023-05-14T10:57:22;12.55;;;7.05;;
52534;SDS011;38443;53.164;5.802;2023-05-14T10:59:50;14.73;;;6.68;;
52534;SDS011;38443;53.164;5.802;2023-05-14T11:02:22;17.52;;;8.35;;
52534;SDS011;38443;53.164;5.802;2023-05-14T11:05:00;19.75;;;8.73;;
52534;SDS011;38443;53.164;5.802;2023-05-14T11:07:33;12.18;;;6.95;;
52534;SDS011;38443;53.164;5.802;2023-05-14T11:10:03;12.48;;;7.90;;
52534;SDS011;38443;53.164;5.802;2023-05-14T11:12:30;13.90;;;7.20;;
52534;SDS011;38443;53.164;5.802;2023-05-14T11:14:56;12.50;;;7.03;;
52534;SDS011;38443;53.164;5.802;2023-05-14T11:17:23;13.38;;;7.10;;
52534;SDS011;38443;53.164;5.802;2023-05-14T11:19:50;10.90;;;6.75;;
52534;SDS011;38443;53.164;5.802;2023-05-14T11:22:15;11.95;;;6.78;;
52534;SDS011;38443;53.164;5.802;2023-05-14T11:24:41;10.05;;;6.28;;
52534;SDS011;38443;53.164;5.802;2023-05-14T11:27:06;9.93;;;7.15;;
52534;SDS011;38443;53.164;5.802;2023-05-14T11:29:33;9.93;;;6.70;;
52534;SDS011;38443;53.164;5.802;2023-05-14T11:32:00;8.90;;;6.53;;
52534;SDS011;38443;53.164;5.802;2023-05-14T11:34:27;9.07;;;6.55;;
52534;SDS011;38443;53.164;5.802;2023-05-14T11:36:52;11.85;;;7.07;;
52534;SDS011;38443;53.164;5.802;2023-05-14T11:39:17;13.60;;;7.13;;
52534;SDS011;38443;53.164;5.802;2023-05-14T11:41:43;14.13;;;7.85;;
52534;SDS011;38443;53.164;5.802;2023-05-14T11:44:10;15.40;;;7.68;;
52534;SDS011;38443;53.164;5.802;2023-05-14T11:46:35;14.73;;;6.95;;
52534;SDS011;38443;53.164;5.802;2023-05-14T11:49:03;10.07;;;6.78;;
52534;SDS011;38443;53.164;5.802;2023-05-14T11:51:28;16.42;;;7.28;;
52534;SDS011;38443;53.164;5.802;2023-05-14T11:53:54;12.75;;;7.75;;
52534;SDS011;38443;53.164;5.802;2023-05-14T11:56:20;15.02;;;7.20;;
52534;SDS011;38443;53.164;5.802;2023-05-14T11:58:47;11.80;;;7.68;;
52534;SDS011;38443;53.164;5.802;2023-05-14T12:01:20;13.60;;;6.80;;
52534;SDS011;38443;53.164;5.802;2023-05-14T12:03:46;11.75;;;7.05;;
52534;SDS011;38443;53.164;5.802;2023-05-14T12:06:11;10.27;;;6.88;;
52534;SDS011;38443;53.164;5.802;2023-05-14T12:08:36;12.48;;;7.18;;
52534;SDS011;38443;53.164;5.802;2023-05-14T12:11:02;13.30;;;7.53;;
52534;SDS011;38443;53.164;5.802;2023-05-14T12:13:31;11.02;;;7.13;;
52534;SDS011;38443;53.164;5.802;2023-05-14T12:15:57;11.00;;;6.53;;
52534;SDS011;38443;53.164;5.802;2023-05-14T12:18:24;11.40;;;7.13;;
52534;SDS011;38443;53.164;5.802;2023-05-14T12:20:52;13.80;;;7.32;;
52534;SDS011;38443;53.164;5.802;2023-05-14T12:23:26;12.60;;;7.32;;
52534;SDS011;38443;53.164;5.802;2023-05-14T12:25:54;15.52;;;6.97;;
52534;SDS011;38443;53.164;5.802;2023-05-14T12:28:24;13.48;;;6.68;;
52534;SDS011;38443;53.164;5.802;2023-05-14T12:30:54;11.20;;;7.28;;
52534;SDS011;38443;53.164;5.802;2023-05-14T12:33:21;11.18;;;6.70;;
52534;SDS011;38443;53.164;5.802;2023-05-14T12:35:47;12.40;;;6.63;;
52534;SDS011;38443;53.164;5.802;2023-05-14T12:38:17;9.60;;;6.53;;
52534;SDS011;38443;53.164;5.802;2023-05-14T12:40:43;13.40;;;7.60;;
52534;SDS011;38443;53.164;5.802;2023-05-14T12:43:08;9.57;;;6.30;;
52534;SDS011;38443;53.164;5.802;2023-05-14T12:45:34;10.15;;;6.50;;
52534;SDS011;38443;53.164;5.802;2023-05-14T12:47:59;12.48;;;7.25;;
52534;SDS011;38443;53.164;5.802;2023-05-14T12:50:24;13.63;;;6.88;;
52534;SDS011;38443;53.164;5.802;2023-05-14T12:52:50;9.50;;;6.10;;
52534;SDS011;38443;53.164;5.802;2023-05-14T12:55:15;12.75;;;6.45;;
52534;SDS011;38443;53.164;5.802;2023-05-14T12:57:41;9.43;;;5.72;;
52534;SDS011;38443;53.164;5.802;2023-05-14T13:00:07;9.88;;;6.57;;
52534;SDS011;38443;53.164;5.802;2023-05-14T13:02:34;10.23;;;6.10;;
52534;SDS011;38443;53.164;5.802;2023-05-14T13:05:00;8.75;;;5.65;;
52534;SDS011;38443;53.164;5.802;2023-05-14T13:07:27;8.77;;;5.50;;
52534;SDS011;38443;53.164;5.802;2023-05-14T13:09:54;13.20;;;6.95;;
52534;SDS011;38443;53.164;5.802;2023-05-14T13:12:19;8.10;;;6.30;;
52534;SDS011;38443;53.164;5.802;2023-05-14T13:14:45;9.18;;;5.85;;
52534;SDS011;38443;53.164;5.802;2023-05-14T13:17:10;10.10;;;6.15;;
52534;SDS011;38443;53.164;5.802;2023-05-14T13:19:35;11.52;;;5.97;;
52534;SDS011;38443;53.164;5.802;2023-05-14T13:22:00;11.43;;;6.90;;
52534;SDS011;38443;53.164;5.802;2023-05-14T13:24:26;11.30;;;6.28;;
52534;SDS011;38443;53.164;5.802;2023-05-14T13:26:51;9.07;;;5.90;;
52534;SDS011;38443;53.164;5.802;2023-05-14T13:29:16;8.55;;;6.05;;
52534;SDS011;38443;53.164;5.802;2023-05-14T13:31:42;12.35;;;6.78;;
52534;SDS011;38443;53.164;5.802;2023-05-14T13:34:07;9.35;;;6.47;;
52534;SDS011;38443;53.164;5.802;2023-05-14T13:36:34;12.43;;;7.38;;
52534;SDS011;38443;53.164;5.802;2023-05-14T13:39:03;11.93;;;6.68;;
52534;SDS011;38443;53.164;5.802;2023-05-14T13:41:29;9.00;;;6.35;;
52534;SDS011;38443;53.164;5.802;2023-05-14T13:43:58;10.80;;;6.35;;
52534;SDS011;38443;53.164;5.802;2023-05-14T13:46:24;10.00;;;7.25;;
52534;SDS011;38443;53.164;5.802;2023-05-14T13:48:49;9.63;;;6.72;;
52534;SDS011;38443;53.164;5.802;2023-05-14T13:51:15;10.40;;;6.85;;
52534;SDS011;38443;53.164;5.802;2023-05-14T13:53:40;13.75;;;8.30;;
52534;SDS011;38443;53.164;5.802;2023-05-14T13:56:05;9.63;;;6.20;;
52534;SDS011;38443;53.164;5.802;2023-05-14T13:58:32;10.35;;;6.60;;
52534;SDS011;38443;53.164;5.802;2023-05-14T14:00:57;10.90;;;7.18;;
52534;SDS011;38443;53.164;5.802;2023-05-14T14:03:23;11.23;;;7.10;;
52534;SDS011;38443;53.164;5.802;2023-05-14T14:05:48;10.85;;;7.10;;
52534;SDS011;38443;53.164;5.802;2023-05-14T14:08:14;10.30;;;6.85;;
52534;SDS011;38443;53.164;5.802;2023-05-14T14:10:39;11.50;;;6.90;;
52534;SDS011;38443;53.164;5.802;2023-05-14T14:13:06;13.07;;;7.22;;
52534;SDS011;38443;53.164;5.802;2023-05-14T14:15:32;12.93;;;7.68;;
52534;SDS011;38443;53.164;5.802;2023-05-14T14:17:57;11.38;;;7.32;;
52534;SDS011;38443;53.164;5.802;2023-05-14T14:20:22;11.52;;;6.90;;
52534;SDS011;38443;53.164;5.802;2023-05-14T14:22:48;13.18;;;7.90;;
52534;SDS011;38443;53.164;5.802;2023-05-14T14:25:13;15.52;;;8.23;;
52534;SDS011;38443;53.164;5.802;2023-05-14T14:27:38;14.25;;;7.55;;
52534;SDS011;38443;53.164;5.802;2023-05-14T14:30:05;15.93;;;8.77;;
52534;SDS011;38443;53.164;5.802;2023-05-14T14:32:33;12.77;;;7.53;;
52534;SDS011;38443;53.164;5.802;2023-05-14T14:34:58;11.85;;;8.05;;
52534;SDS011;38443;53.164;5.802;2023-05-14T14:37:23;13.55;;;8.65;;
52534;SDS011;38443;53.164;5.802;2023-05-14T14:39:49;16.00;;;8.68;;
52534;SDS011;38443;53.164;5.802;2023-05-14T14:42:14;13.30;;;9.20;;
52534;SDS011;38443;53.164;5.802;2023-05-14T14:44:39;14.52;;;7.93;;
52534;SDS011;38443;53.164;5.802;2023-05-14T14:47:05;12.45;;;8.05;;
52534;SDS011;38443;53.164;5.802;2023-05-14T14:49:30;12.95;;;7.95;;
52534;SDS011;38443;53.164;5.802;2023-05-14T14:51:56;12.95;;;8.63;;
52534;SDS011;38443;53.164;5.802;2023-05-14T14:54:21;14.07;;;8.18;;
52534;SDS011;38443;53.164;5.802;2023-05-14T14:56:47;11.73;;;8.00;;
52534;SDS011;38443;53.164;5.802;2023-05-14T14:59:13;15.35;;;8.48;;
52534;SDS011;38443;53.164;5.802;2023-05-14T15:01:38;13.93;;;8.15;;
52534;SDS011;38443;53.164;5.802;2023-05-14T15:04:04;17.23;;;9.30;;
52534;SDS011;38443;53.164;5.802;2023-05-14T15:06:29;12.40;;;8.18;;
52534;SDS011;38443;53.164;5.802;2023-05-14T15:08:55;13.93;;;9.10;;
52534;SDS011;38443;53.164;5.802;2023-05-14T15:11:20;13.20;;;9.20;;
52534;SDS011;38443;53.164;5.802;2023-05-14T15:13:46;13.50;;;8.63;;
52534;SDS011;38443;53.164;5.802;2023-05-14T15:16:11;11.98;;;8.32;;
52534;SDS011;38443;53.164;5.802;2023-05-14T15:18:37;13.40;;;9.82;;
52534;SDS011;38443;53.164;5.802;2023-05-14T15:21:03;11.73;;;8.80;;
52534;SDS011;38443;53.164;5.802;2023-05-14T15:23:28;16.92;;;9.90;;
52534;SDS011;38443;53.164;5.802;2023-05-14T15:25:54;14.10;;;9.15;;
52534;SDS011;38443;53.164;5.802;2023-05-14T15:28:19;18.63;;;8.70;;
52534;SDS011;38443;53.164;5.802;2023-05-14T15:30:46;20.02;;;10.80;;
52534;SDS011;38443;53.164;5.802;2023-05-14T15:33:11;13.50;;;9.23;;
52534;SDS011;38443;53.164;5.802;2023-05-14T15:35:37;17.60;;;9.30;;
52534;SDS011;38443;53.164;5.802;2023-05-14T15:38:02;11.82;;;8.60;;
52534;SDS011;38443;53.164;5.802;2023-05-14T15:40:27;14.23;;;8.60;;
52534;SDS011;38443;53.164;5.802;2023-05-14T15:42:53;16.48;;;8.95;;
52534;SDS011;38443;53.164;5.802;2023-05-14T15:45:18;12.68;;;8.32;;
52534;SDS011;38443;53.164;5.802;2023-05-14T15:47:44;16.92;;;9.32;;
52534;SDS011;38443;53.164;5.802;2023-05-14T15:50:09;13.82;;;9.45;;
52534;SDS011;38443;53.164;5.802;2023-05-14T15:52:35;11.75;;;8.63;;
52534;SDS011;38443;53.164;5.802;2023-05-14T15:55:01;14.93;;;8.75;;
52534;SDS011;38443;53.164;5.802;2023-05-14T15:57:30;11.10;;;8.15;;
52534;SDS011;38443;53.164;5.802;2023-05-14T15:59:55;13.68;;;9.07;;
52534;SDS011;38443;53.164;5.802;2023-05-14T16:02:21;12.85;;;8.15;;
52534;SDS011;38443;53.164;5.802;2023-05-14T16:04:46;12.20;;;8.43;;
52534;SDS011;38443;53.164;5.802;2023-05-14T16:07:13;13.50;;;8.57;;
52534;SDS011;38443;53.164;5.802;2023-05-14T16:09:39;13.98;;;9.20;;
52534;SDS011;38443;53.164;5.802;2023-05-14T16:12:05;13.52;;;8.88;;